createdAt,value
2019-05-25T00:00:06.227Z,13.10
2019-05-25T00:01:06.219Z,12.90
2019-05-25T00:02:06.201Z,12.50
2019-05-25T00:03:06.281Z,11.30
2019-05-25T00:04:06.209Z,12.70
2019-05-25T00:05:06.193Z,12.10
2019-05-25T00:06:06.161Z,12.50
2019-05-25T00:07:06.150Z,13.10
2019-05-25T00:08:06.137Z,14.00
2019-05-25T00:09:06.933Z,13.30
2019-05-25T00:10:06.134Z,13.40
2019-05-25T00:11:06.100Z,13.70
2019-05-25T00:12:06.091Z,14.60
2019-05-25T00:13:06.077Z,14.30
2019-05-25T00:14:06.076Z,16.60
2019-05-25T00:15:06.086Z,16.80
2019-05-25T00:16:06.068Z,17.10
2019-05-25T00:17:06.070Z,17.40
2019-05-25T00:18:06.056Z,19.40
2019-05-25T00:19:06.007Z,18.90
2019-05-25T00:20:06.457Z,20.70
2019-05-25T00:21:06.008Z,19.40
2019-05-25T00:22:05.993Z,19.70
2019-05-25T00:23:05.959Z,19.00
2019-05-25T00:24:12.143Z,19.20
2019-05-25T00:25:06.014Z,20.60
2019-05-25T00:26:05.944Z,19.70
2019-05-25T00:27:05.929Z,19.60
2019-05-25T00:28:05.931Z,20.50
2019-05-25T00:29:05.901Z,20.50
2019-05-25T00:30:05.883Z,20.10
2019-05-25T00:31:05.885Z,19.30
2019-05-25T00:32:05.897Z,18.60
2019-05-25T00:33:05.866Z,18.30
2019-05-25T00:34:05.871Z,18.20
2019-05-25T00:35:05.839Z,18.20
2019-05-25T00:36:05.825Z,18.60
2019-05-25T00:37:05.814Z,18.10
2019-05-25T00:38:05.852Z,17.40
2019-05-25T00:39:05.805Z,19.00
2019-05-25T00:40:05.773Z,17.90
2019-05-25T00:41:05.819Z,17.90
2019-05-25T00:42:05.747Z,18.60
2019-05-25T00:43:05.738Z,18.60
2019-05-25T00:44:05.779Z,18.30
2019-05-25T00:45:05.728Z,18.60
2019-05-25T00:46:05.711Z,17.90
2019-05-25T00:47:05.709Z,17.00
2019-05-25T00:48:05.693Z,17.80
2019-05-25T00:49:05.671Z,16.90
2019-05-25T00:50:05.679Z,17.50
2019-05-25T00:51:05.672Z,21.20
2019-05-25T00:52:05.667Z,22.90
2019-05-25T00:53:05.676Z,24.10
2019-05-25T00:54:05.616Z,25.20
2019-05-25T00:55:05.611Z,25.00
2019-05-25T00:56:05.614Z,24.00
2019-05-25T00:57:05.644Z,25.50
2019-05-25T00:58:05.579Z,20.80
2019-05-25T00:59:05.561Z,23.50
2019-05-25T01:00:05.546Z,27.00
2019-05-25T01:01:05.691Z,27.60
2019-05-25T01:02:05.577Z,26.90
2019-05-25T01:03:05.546Z,26.50
2019-05-25T01:04:05.511Z,25.70
2019-05-25T01:05:06.476Z,25.80
2019-05-25T01:06:05.479Z,24.80
2019-05-25T01:07:05.490Z,23.80
2019-05-25T01:08:05.489Z,23.20
2019-05-25T01:09:05.466Z,22.40
2019-05-25T01:10:05.433Z,21.60
2019-05-25T01:11:05.454Z,23.10
2019-05-25T01:12:05.414Z,22.40
2019-05-25T01:13:05.441Z,22.20
2019-05-25T01:14:05.415Z,22.10
2019-05-25T01:15:05.381Z,22.10
2019-05-25T01:16:05.369Z,22.00
2019-05-25T01:17:05.976Z,21.00
2019-05-25T01:18:05.354Z,21.70
2019-05-25T01:19:05.361Z,21.10
2019-05-25T01:20:05.352Z,21.00
2019-05-25T01:21:05.348Z,21.50
2019-05-25T01:22:05.298Z,20.40
2019-05-25T01:23:05.307Z,21.10
2019-05-25T01:24:05.297Z,20.60
2019-05-25T01:25:05.280Z,20.50
2019-05-25T01:26:05.269Z,20.20
2019-05-25T01:27:05.274Z,20.90
2019-05-25T01:28:05.234Z,21.00
2019-05-25T01:29:05.301Z,21.20
2019-05-25T01:30:05.224Z,20.60
2019-05-25T01:31:05.219Z,21.90
2019-05-25T01:32:05.275Z,21.40
2019-05-25T01:33:05.174Z,20.90
2019-05-25T01:34:05.166Z,20.70
2019-05-25T01:35:05.205Z,20.00
2019-05-25T01:36:05.160Z,21.00
2019-05-25T01:37:05.157Z,20.40
2019-05-25T01:38:05.153Z,20.10
2019-05-25T01:39:05.107Z,20.30
2019-05-25T01:40:05.102Z,19.60
2019-05-25T01:41:05.127Z,20.20
2019-05-25T01:42:05.083Z,20.20
2019-05-25T01:43:05.084Z,19.70
2019-05-25T01:44:05.054Z,19.10
2019-05-25T01:45:05.036Z,19.70
2019-05-25T01:46:05.045Z,19.60
2019-05-25T01:47:05.030Z,19.30
2019-05-25T01:48:05.022Z,18.80
2019-05-25T01:49:05.016Z,18.80
2019-05-25T01:50:04.984Z,19.00
2019-05-25T01:51:05.004Z,19.70
2019-05-25T01:52:04.969Z,19.30
2019-05-25T01:53:04.972Z,19.40
2019-05-25T01:54:04.950Z,19.50
2019-05-25T01:55:04.952Z,19.30
2019-05-25T01:56:04.967Z,18.70
2019-05-25T01:57:04.910Z,19.20
2019-05-25T01:58:04.893Z,18.20
2019-05-25T01:59:04.901Z,18.70
2019-05-25T02:00:04.896Z,18.30
2019-05-25T02:01:04.860Z,18.10
2019-05-25T02:02:04.856Z,18.80
2019-05-25T02:03:04.834Z,17.10
2019-05-25T02:04:04.830Z,17.90
2019-05-25T02:05:04.823Z,17.90
2019-05-25T02:06:04.829Z,18.30
2019-05-25T02:07:04.798Z,17.60
2019-05-25T02:08:04.781Z,17.40
2019-05-25T02:09:04.772Z,17.60
2019-05-25T02:10:04.772Z,17.60
2019-05-25T02:11:04.757Z,17.60
2019-05-25T02:12:04.846Z,17.50
2019-05-25T02:13:04.727Z,17.40
2019-05-25T02:14:04.714Z,17.80
2019-05-25T02:15:04.700Z,17.60
2019-05-25T02:16:04.706Z,17.10
2019-05-25T02:17:04.698Z,18.00
2019-05-25T02:18:04.691Z,17.50
2019-05-25T02:19:04.655Z,17.10
2019-05-25T02:20:04.642Z,17.60
2019-05-25T02:21:04.633Z,17.70
2019-05-25T02:22:04.652Z,18.20
2019-05-25T02:23:04.633Z,18.20
2019-05-25T02:24:04.598Z,19.20
2019-05-25T02:25:17.064Z,19.10
2019-05-25T02:26:04.580Z,18.50
2019-05-25T02:27:04.574Z,18.80
2019-05-25T02:28:04.600Z,17.90
2019-05-25T02:29:04.565Z,17.70
2019-05-25T02:30:04.540Z,18.10
2019-05-25T02:31:04.523Z,18.20
2019-05-25T02:32:04.511Z,17.50
2019-05-25T02:33:04.518Z,17.30
2019-05-25T02:34:04.527Z,17.60
2019-05-25T02:35:04.494Z,17.30
2019-05-25T02:36:04.463Z,17.20
2019-05-25T02:37:04.456Z,16.50
2019-05-25T02:38:04.442Z,17.00
2019-05-25T02:39:04.492Z,17.30
2019-05-25T02:40:04.458Z,16.50
2019-05-25T02:41:04.440Z,16.30
2019-05-25T02:42:04.528Z,17.10
2019-05-25T02:43:04.647Z,17.70
2019-05-25T02:44:04.418Z,17.00
2019-05-25T02:45:04.382Z,16.50
2019-05-25T02:46:04.364Z,16.60
2019-05-25T02:47:04.387Z,16.70
2019-05-25T02:48:04.328Z,16.10
2019-05-25T02:49:04.315Z,16.30
2019-05-25T02:50:04.332Z,16.10
2019-05-25T02:51:04.320Z,16.50
2019-05-25T02:52:04.296Z,16.70
2019-05-25T02:53:04.273Z,16.60
2019-05-25T02:54:04.275Z,17.10
2019-05-25T02:55:04.253Z,16.40
2019-05-25T02:56:04.251Z,16.80
2019-05-25T02:57:04.235Z,17.00
2019-05-25T02:58:04.234Z,17.50
2019-05-25T02:59:04.208Z,17.30
2019-05-25T03:00:04.263Z,17.00
2019-05-25T03:01:04.191Z,16.70
2019-05-25T03:02:04.190Z,16.80
2019-05-25T03:03:04.173Z,16.80
2019-05-25T03:04:04.174Z,17.10
2019-05-25T03:05:04.139Z,17.60
2019-05-25T03:06:04.270Z,16.70
2019-05-25T03:07:04.121Z,18.60
2019-05-25T03:08:04.122Z,17.60
2019-05-25T03:09:04.134Z,16.60
2019-05-25T03:10:04.100Z,16.90
2019-05-25T03:11:04.082Z,16.60
2019-05-25T03:12:04.066Z,16.30
2019-05-25T03:13:04.142Z,16.50
2019-05-25T03:14:04.053Z,17.20
2019-05-25T03:15:04.210Z,17.30
2019-05-25T03:16:04.058Z,17.20
2019-05-25T03:17:04.007Z,17.50
2019-05-25T03:18:03.991Z,17.30
2019-05-25T03:19:03.980Z,17.10
2019-05-25T03:20:03.986Z,17.10
2019-05-25T03:21:04.002Z,17.40
2019-05-25T03:22:03.970Z,17.30
2019-05-25T03:23:03.939Z,17.60
2019-05-25T03:24:03.930Z,17.90
2019-05-25T03:25:03.915Z,17.40
2019-05-25T03:26:03.920Z,17.40
2019-05-25T03:27:03.917Z,17.80
2019-05-25T03:28:03.890Z,17.40
2019-05-25T03:29:03.873Z,17.20
2019-05-25T03:30:03.864Z,17.50
2019-05-25T03:31:03.856Z,16.90
2019-05-25T03:32:03.850Z,17.70
2019-05-25T03:33:03.844Z,17.70
2019-05-25T03:34:03.817Z,17.50
2019-05-25T03:35:03.823Z,17.20
2019-05-25T03:36:03.800Z,17.60
2019-05-25T03:37:03.862Z,17.70
2019-05-25T03:38:03.789Z,17.90
2019-05-25T03:39:03.783Z,18.20
2019-05-25T03:40:03.759Z,16.90
2019-05-25T03:41:03.737Z,17.10
2019-05-25T03:42:03.736Z,17.50
2019-05-25T03:43:03.737Z,18.80
2019-05-25T03:44:03.718Z,17.90
2019-05-25T03:45:03.688Z,17.50
2019-05-25T03:46:03.679Z,18.20
2019-05-25T03:47:03.668Z,17.90
2019-05-25T03:48:03.674Z,18.10
2019-05-25T03:49:03.661Z,18.40
2019-05-25T03:50:03.655Z,19.00
2019-05-25T03:51:03.626Z,17.60
2019-05-25T03:52:03.615Z,19.60
2019-05-25T03:53:03.728Z,20.30
2019-05-25T03:54:03.593Z,19.60
2019-05-25T03:55:03.606Z,19.00
2019-05-25T03:56:06.225Z,20.50
2019-05-25T03:57:03.557Z,20.10
2019-05-25T03:58:03.549Z,19.20
2019-05-25T03:59:03.559Z,20.20
2019-05-25T04:00:03.537Z,20.50
2019-05-25T04:01:03.524Z,19.50
2019-05-25T04:02:03.519Z,19.70
2019-05-25T04:03:03.488Z,19.70
2019-05-25T04:04:03.485Z,18.90
2019-05-25T04:05:03.466Z,19.00
2019-05-25T04:06:03.510Z,18.30
2019-05-25T04:07:03.471Z,18.20
2019-05-25T04:08:03.457Z,17.70
2019-05-25T04:09:03.437Z,18.40
2019-05-25T04:10:03.467Z,18.30
2019-05-25T04:11:03.407Z,18.60
2019-05-25T04:12:03.403Z,19.30
2019-05-25T04:13:03.396Z,18.50
2019-05-25T04:14:03.425Z,18.60
2019-05-25T04:15:03.368Z,18.70
2019-05-25T04:16:03.367Z,18.50
2019-05-25T04:17:03.351Z,18.50
2019-05-25T04:18:03.338Z,18.30
2019-05-25T04:19:03.356Z,18.10
2019-05-25T04:20:03.307Z,18.10
2019-05-25T04:21:03.299Z,17.80
2019-05-25T04:22:03.279Z,17.20
2019-05-25T04:23:03.273Z,17.90
2019-05-25T04:24:03.261Z,17.10
2019-05-25T04:25:03.270Z,17.40
2019-05-25T04:26:03.240Z,17.60
2019-05-25T04:27:03.238Z,18.30
2019-05-25T04:28:03.222Z,18.30
2019-05-25T04:29:03.215Z,18.20
2019-05-25T04:30:03.219Z,17.80
2019-05-25T04:31:03.216Z,18.20
2019-05-25T04:32:03.206Z,17.80
2019-05-25T04:33:03.157Z,18.40
2019-05-25T04:34:03.147Z,17.70
2019-05-25T04:35:03.174Z,18.20
2019-05-25T04:36:03.144Z,18.70
2019-05-25T04:37:03.153Z,19.30
2019-05-25T04:38:03.113Z,19.70
2019-05-25T04:39:03.093Z,18.70
2019-05-25T04:40:03.078Z,18.80
2019-05-25T04:41:03.087Z,18.10
2019-05-25T04:42:03.075Z,18.90
2019-05-25T04:43:03.063Z,18.80
2019-05-25T04:44:03.041Z,19.60
2019-05-25T04:45:03.019Z,18.40
2019-05-25T04:46:03.036Z,19.30
2019-05-25T04:47:03.012Z,20.20
2019-05-25T04:48:03.001Z,19.40
2019-05-25T04:49:02.980Z,19.30
2019-05-25T04:50:02.979Z,19.30
2019-05-25T04:51:02.984Z,20.50
2019-05-25T04:52:02.941Z,20.30
2019-05-25T04:53:02.958Z,21.10
2019-05-25T04:54:02.937Z,20.60
2019-05-25T04:55:02.909Z,19.80
2019-05-25T04:56:02.906Z,20.60
2019-05-25T04:57:03.054Z,20.30
2019-05-25T04:58:02.882Z,20.70
2019-05-25T04:59:02.905Z,21.70
2019-05-25T05:00:02.900Z,22.40
2019-05-25T05:01:02.841Z,22.20
2019-05-25T05:02:02.834Z,22.80
2019-05-25T05:03:02.821Z,23.40
2019-05-25T05:04:02.821Z,23.00
2019-05-25T05:05:02.872Z,22.80
2019-05-25T05:06:02.812Z,22.10
2019-05-25T05:07:02.780Z,22.90
2019-05-25T05:08:02.788Z,21.40
2019-05-25T05:09:02.756Z,21.30
2019-05-25T05:10:03.453Z,20.20
2019-05-25T05:11:02.744Z,20.70
2019-05-25T05:12:02.772Z,20.40
2019-05-25T05:13:02.709Z,20.70
2019-05-25T05:14:02.707Z,21.50
2019-05-25T05:15:02.695Z,21.80
2019-05-25T05:16:02.699Z,20.50
2019-05-25T05:17:02.679Z,20.20
2019-05-25T05:18:02.682Z,20.30
2019-05-25T05:19:02.638Z,19.80
2019-05-25T05:20:02.634Z,20.30
2019-05-25T05:21:02.622Z,19.60
2019-05-25T05:22:05.177Z,19.30
2019-05-25T05:23:02.607Z,18.80
2019-05-25T05:24:02.585Z,18.20
2019-05-25T05:25:02.574Z,18.50
2019-05-25T05:26:02.563Z,18.40
2019-05-25T05:27:02.566Z,17.60
2019-05-25T05:28:02.575Z,18.40
2019-05-25T05:29:02.546Z,18.80
2019-05-25T05:30:02.515Z,18.70
2019-05-25T05:31:03.028Z,19.20
2019-05-25T05:32:02.501Z,18.60
2019-05-25T05:33:02.534Z,18.50
2019-05-25T05:34:02.509Z,18.30
2019-05-25T05:35:02.480Z,18.30
2019-05-25T05:36:02.449Z,16.90
2019-05-25T05:37:02.438Z,17.90
2019-05-25T05:38:02.443Z,17.40
2019-05-25T05:39:02.449Z,17.00
2019-05-25T05:40:02.458Z,16.60
2019-05-25T05:41:02.415Z,16.10
2019-05-25T05:42:02.382Z,16.60
2019-05-25T05:43:02.368Z,15.80
2019-05-25T05:44:02.548Z,16.40
2019-05-25T05:45:02.353Z,15.70
2019-05-25T05:46:02.351Z,16.10
2019-05-25T05:47:02.322Z,15.50
2019-05-25T05:48:02.318Z,15.90
2019-05-25T05:49:02.409Z,16.20
2019-05-25T05:50:02.305Z,16.20
2019-05-25T05:51:02.298Z,15.90
2019-05-25T05:52:02.322Z,15.50
2019-05-25T05:53:02.256Z,16.20
2019-05-25T05:54:02.243Z,16.10
2019-05-25T05:55:02.249Z,16.10
2019-05-25T05:56:02.250Z,15.30
2019-05-25T05:57:11.675Z,15.60
2019-05-25T05:58:03.199Z,15.30
2019-05-25T05:59:02.190Z,15.70
2019-05-25T06:00:02.180Z,15.80
2019-05-25T06:01:02.203Z,15.40
2019-05-25T06:02:02.157Z,15.40
2019-05-25T06:03:02.152Z,16.00
2019-05-25T06:04:02.276Z,14.90
2019-05-25T06:05:03.016Z,15.40
2019-05-25T06:06:02.106Z,15.50
2019-05-25T06:07:02.116Z,15.40
2019-05-25T06:08:03.048Z,15.30
2019-05-25T06:09:02.099Z,14.90
2019-05-25T06:10:02.064Z,14.40
2019-05-25T06:11:02.049Z,14.70
2019-05-25T06:12:02.056Z,14.40
2019-05-25T06:13:02.033Z,14.90
2019-05-25T06:14:02.038Z,15.00
2019-05-25T06:15:02.109Z,14.30
2019-05-25T06:16:02.001Z,14.50
2019-05-25T06:17:01.995Z,14.10
2019-05-25T06:18:01.966Z,14.00
2019-05-25T06:19:01.970Z,14.00
2019-05-25T06:20:01.948Z,14.20
2019-05-25T06:21:01.953Z,14.00
2019-05-25T06:22:01.983Z,14.20
2019-05-25T06:23:01.920Z,13.70
2019-05-25T06:24:01.897Z,13.80
2019-05-25T06:25:01.914Z,13.40
2019-05-25T06:26:01.892Z,13.90
2019-05-25T06:27:01.904Z,13.90
2019-05-25T06:28:01.856Z,13.50
2019-05-25T06:29:01.844Z,14.00
2019-05-25T06:30:01.839Z,13.00
2019-05-25T06:31:01.825Z,13.20
2019-05-25T06:32:01.834Z,13.00
2019-05-25T06:33:01.827Z,12.60
2019-05-25T06:34:01.788Z,12.70
2019-05-25T06:35:01.800Z,12.60
2019-05-25T06:36:01.766Z,12.50
2019-05-25T06:37:01.786Z,13.20
2019-05-25T06:38:01.756Z,12.50
2019-05-25T06:39:01.774Z,12.80
2019-05-25T06:40:01.732Z,13.20
2019-05-25T06:41:01.722Z,12.30
2019-05-25T06:42:01.701Z,12.60
2019-05-25T06:43:01.749Z,12.90
2019-05-25T06:44:01.690Z,13.30
2019-05-25T06:45:01.703Z,13.30
2019-05-25T06:46:01.652Z,13.40
2019-05-25T06:47:01.668Z,13.00
2019-05-25T06:48:01.648Z,13.20
2019-05-25T06:49:01.669Z,13.00
2019-05-25T06:50:01.605Z,13.40
2019-05-25T06:51:01.599Z,12.90
2019-05-25T06:52:01.583Z,13.30
2019-05-25T06:53:01.585Z,13.40
2019-05-25T06:54:01.588Z,12.50
2019-05-25T06:55:01.575Z,12.00
2019-05-25T06:56:01.538Z,11.80
2019-05-25T06:57:01.533Z,12.10
2019-05-25T06:58:01.526Z,11.60
2019-05-25T06:59:01.512Z,12.30
2019-05-25T07:00:01.515Z,12.50
2019-05-25T07:01:01.497Z,13.20
2019-05-25T07:02:01.498Z,12.70
2019-05-25T07:03:01.515Z,12.40
2019-05-25T07:04:01.449Z,11.60
2019-05-25T07:05:01.446Z,11.90
2019-05-25T07:06:01.442Z,11.70
2019-05-25T07:07:01.438Z,11.60
2019-05-25T07:08:01.447Z,12.40
2019-05-25T07:09:01.392Z,11.90
2019-05-25T07:10:01.533Z,12.30
2019-05-25T07:11:01.378Z,11.60
2019-05-25T07:12:01.381Z,11.30
2019-05-25T07:13:01.418Z,10.90
2019-05-25T07:14:01.335Z,10.70
2019-05-25T07:15:01.322Z,10.20
2019-05-25T07:16:01.372Z,10.20
2019-05-25T07:17:01.318Z,10.60
2019-05-25T07:18:01.331Z,11.40
2019-05-25T07:19:01.306Z,12.20
2019-05-25T07:20:01.268Z,11.60
2019-05-25T07:21:01.261Z,11.80
2019-05-25T07:22:01.248Z,11.80
2019-05-25T07:23:01.273Z,11.70
2019-05-25T07:24:01.245Z,11.00
2019-05-25T07:25:01.251Z,10.20
2019-05-25T07:26:01.202Z,11.00
2019-05-25T07:27:01.196Z,10.10
2019-05-25T07:28:01.218Z,10.50
2019-05-25T07:29:01.201Z,10.20
2019-05-25T07:30:01.177Z,9.90
2019-05-25T07:31:01.173Z,10.80
2019-05-25T07:32:01.133Z,10.50
2019-05-25T07:33:01.205Z,10.70
2019-05-25T07:34:01.120Z,10.60
2019-05-25T07:35:01.115Z,9.90
2019-05-25T07:36:01.111Z,10.20
2019-05-25T07:37:01.076Z,10.00
2019-05-25T07:38:01.079Z,10.00
2019-05-25T07:39:01.066Z,10.00
2019-05-25T07:40:01.061Z,9.80
2019-05-25T07:41:01.050Z,9.50
2019-05-25T07:42:01.204Z,10.00
2019-05-25T07:43:01.009Z,10.10
2019-05-25T07:44:01.001Z,9.20
2019-05-25T07:45:00.986Z,9.20
2019-05-25T07:46:01.000Z,9.10
2019-05-25T07:47:00.979Z,8.00
2019-05-25T07:48:00.985Z,8.70
2019-05-25T07:49:00.980Z,8.60
2019-05-25T07:50:00.934Z,8.20
2019-05-25T07:51:00.931Z,8.30
2019-05-25T07:52:02.756Z,8.50
2019-05-25T07:53:00.919Z,8.30
2019-05-25T07:54:00.891Z,8.40
2019-05-25T07:55:00.883Z,8.40
2019-05-25T07:56:00.879Z,7.60
2019-05-25T07:57:00.864Z,7.50
2019-05-25T07:58:15.902Z,7.20
2019-05-25T07:59:00.844Z,7.20
2019-05-25T08:00:00.930Z,7.50
2019-05-25T08:01:00.810Z,8.40
2019-05-25T08:02:00.799Z,8.80
2019-05-25T08:03:00.795Z,8.80
2019-05-25T08:04:00.799Z,8.00
2019-05-25T08:05:00.760Z,8.10
2019-05-25T08:06:00.762Z,8.10
2019-05-25T08:07:00.739Z,8.90
2019-05-25T08:08:00.761Z,9.70
2019-05-25T08:09:00.738Z,8.90
2019-05-25T08:10:00.730Z,8.80
2019-05-25T08:11:00.730Z,8.70
2019-05-25T08:12:00.689Z,9.50
2019-05-25T08:13:00.670Z,9.50
2019-05-25T08:14:00.660Z,9.10
2019-05-25T08:15:00.661Z,9.10
2019-05-25T08:16:00.661Z,8.80
2019-05-25T08:17:00.644Z,8.80
2019-05-25T08:18:00.661Z,10.40
2019-05-25T08:19:00.621Z,9.90
2019-05-25T08:20:00.598Z,9.90
2019-05-25T08:21:00.599Z,10.10
2019-05-25T08:22:00.591Z,10.10
2019-05-25T08:23:00.595Z,9.90
2019-05-25T08:24:00.614Z,11.10
2019-05-25T08:25:00.537Z,10.30
2019-05-25T08:26:00.549Z,10.60
2019-05-25T08:27:00.531Z,10.70
2019-05-25T08:28:00.527Z,10.70
2019-05-25T08:29:00.492Z,11.10
2019-05-25T08:30:00.491Z,11.40
2019-05-25T08:31:01.361Z,11.40
2019-05-25T08:32:00.490Z,10.20
2019-05-25T08:33:00.462Z,10.00
2019-05-25T08:34:00.474Z,11.00
2019-05-25T08:35:00.434Z,11.30
2019-05-25T08:36:00.484Z,10.60
2019-05-25T08:37:00.402Z,10.50
2019-05-25T08:38:00.394Z,10.60
2019-05-25T08:39:00.401Z,10.50
2019-05-25T08:40:00.404Z,11.20
2019-05-25T08:41:00.360Z,11.00
2019-05-25T08:42:00.365Z,10.50
2019-05-25T08:43:00.343Z,11.30
2019-05-25T08:44:04.160Z,11.10
2019-05-25T08:45:00.339Z,10.50
2019-05-25T08:46:00.338Z,10.70
2019-05-25T08:47:00.292Z,10.90
2019-05-25T08:48:00.289Z,10.70
2019-05-25T08:49:00.289Z,10.30
2019-05-25T08:50:00.276Z,9.90
2019-05-25T08:51:00.293Z,9.70
2019-05-25T08:52:00.291Z,10.00
2019-05-25T08:53:00.223Z,10.90
2019-05-25T08:54:00.291Z,10.20
2019-05-25T08:55:00.234Z,9.70
2019-05-25T08:56:00.232Z,9.90
2019-05-25T08:57:00.205Z,10.50
2019-05-25T08:58:00.245Z,10.60
2019-05-25T08:59:00.158Z,9.60
2019-05-25T09:00:00.151Z,9.20
2019-05-25T09:01:00.151Z,9.30
2019-05-25T09:02:00.160Z,9.60
2019-05-25T09:03:00.110Z,8.80
2019-05-25T09:04:00.105Z,8.70
2019-05-25T09:05:00.082Z,8.50
2019-05-25T09:06:00.111Z,8.00
2019-05-25T09:07:00.100Z,8.50
2019-05-25T09:08:00.069Z,8.10
2019-05-25T09:09:00.071Z,8.50
2019-05-25T09:10:00.086Z,8.10
2019-05-25T09:11:00.021Z,7.90
2019-05-25T09:12:00.024Z,8.70
2019-05-25T09:13:00.010Z,8.30
2019-05-25T09:14:00.038Z,7.50
2019-05-25T09:15:00.008Z,8.00
2019-05-25T09:15:59.961Z,8.10
2019-05-25T09:16:59.955Z,7.80
2019-05-25T09:17:59.981Z,7.90
2019-05-25T09:18:59.948Z,8.50
2019-05-25T09:19:59.956Z,8.30
2019-05-25T09:20:59.909Z,7.50
2019-05-25T09:22:03.280Z,7.00
2019-05-25T09:22:59.884Z,7.50
2019-05-25T09:23:59.889Z,7.30
2019-05-25T09:24:59.881Z,6.60
2019-05-25T09:25:59.900Z,6.80
2019-05-25T09:26:59.847Z,6.50
2019-05-25T09:27:59.829Z,6.70
2019-05-25T09:29:04.660Z,7.50
2019-05-25T09:29:59.833Z,6.20
2019-05-25T09:30:59.814Z,6.10
2019-05-25T09:31:59.807Z,7.40
2019-05-25T09:32:59.782Z,7.80
2019-05-25T09:33:59.767Z,7.70
2019-05-25T09:34:59.758Z,8.40
2019-05-25T09:35:59.754Z,7.40
2019-05-25T09:36:59.768Z,8.70
2019-05-25T09:37:59.723Z,7.40
2019-05-25T09:38:59.713Z,8.00
2019-05-25T09:39:59.711Z,7.20
2019-05-25T09:40:59.705Z,7.70
2019-05-25T09:41:59.688Z,7.60
2019-05-25T09:42:59.677Z,7.30
2019-05-25T09:43:59.652Z,7.40
2019-05-25T09:44:59.651Z,7.70
2019-05-25T09:46:03.077Z,7.70
2019-05-25T09:46:59.640Z,7.30
2019-05-25T09:47:59.650Z,7.60
2019-05-25T09:48:59.645Z,6.50
2019-05-25T09:49:59.688Z,6.60
2019-05-25T09:50:59.576Z,7.10
2019-05-25T09:51:59.655Z,7.30
2019-05-25T09:52:59.574Z,7.20
2019-05-25T09:53:59.557Z,7.80
2019-05-25T09:54:59.565Z,6.70
2019-05-25T09:55:59.561Z,7.10
2019-05-25T09:56:59.520Z,7.10
2019-05-25T09:57:59.496Z,7.50
2019-05-25T09:58:59.537Z,6.80
2019-05-25T09:59:59.494Z,7.20
2019-05-25T10:00:59.500Z,6.90
2019-05-25T10:01:59.455Z,6.70
2019-05-25T10:02:59.448Z,7.10
2019-05-25T10:03:59.429Z,7.10
2019-05-25T10:04:59.426Z,6.80
2019-05-25T10:05:59.425Z,6.70
2019-05-25T10:06:59.421Z,6.60
2019-05-25T10:07:59.388Z,6.90
2019-05-25T10:08:59.376Z,6.60
2019-05-25T10:09:59.660Z,7.40
2019-05-25T10:10:59.369Z,7.60
2019-05-25T10:11:59.363Z,7.40
2019-05-25T10:12:59.335Z,6.60
2019-05-25T10:13:59.321Z,7.00
2019-05-25T10:15:00.123Z,7.00
2019-05-25T10:15:59.332Z,7.00
2019-05-25T10:16:59.294Z,7.20
2019-05-25T10:18:00.122Z,6.30
2019-05-25T10:18:59.267Z,6.70
2019-05-25T10:19:59.255Z,6.50
2019-05-25T10:20:59.316Z,7.00
2019-05-25T10:21:59.747Z,7.10
2019-05-25T10:22:59.256Z,7.40
2019-05-25T10:23:59.262Z,6.90
2019-05-25T10:24:59.199Z,6.40
2019-05-25T10:25:59.182Z,5.80
2019-05-25T10:26:59.669Z,5.70
2019-05-25T10:27:59.171Z,5.50
2019-05-25T10:28:59.171Z,5.60
2019-05-25T10:29:59.162Z,5.90
2019-05-25T10:30:59.135Z,6.40
2019-05-25T10:31:59.253Z,6.70
2019-05-25T10:32:59.158Z,7.40
2019-05-25T10:33:59.111Z,7.40
2019-05-25T10:34:59.115Z,6.90
2019-05-25T10:35:59.131Z,6.10
2019-05-25T10:36:59.063Z,6.30
2019-05-25T10:37:59.088Z,6.20
2019-05-25T10:38:59.661Z,6.70
2019-05-25T10:39:59.059Z,6.00
2019-05-25T10:40:59.054Z,6.40
2019-05-25T10:41:59.646Z,5.80
2019-05-25T10:42:58.998Z,6.40
2019-05-25T10:43:59.010Z,6.60
2019-05-25T10:44:59.008Z,6.40
2019-05-25T10:45:58.970Z,6.50
2019-05-25T10:46:58.997Z,5.90
2019-05-25T10:47:58.980Z,6.00
2019-05-25T10:48:58.989Z,5.70
2019-05-25T10:49:58.917Z,6.30
2019-05-25T10:50:59.641Z,6.40
2019-05-25T10:51:58.904Z,6.50
2019-05-25T10:52:58.904Z,5.60
2019-05-25T10:53:58.877Z,5.90
2019-05-25T10:54:58.871Z,5.50
2019-05-25T10:55:58.852Z,5.60
2019-05-25T10:56:58.856Z,5.90
2019-05-25T10:57:58.855Z,5.50
2019-05-25T10:58:58.839Z,5.60
2019-05-25T10:59:58.893Z,6.00
2019-05-25T11:00:58.806Z,5.80
2019-05-25T11:01:58.786Z,6.30
2019-05-25T11:02:58.787Z,6.50
2019-05-25T11:03:58.777Z,6.60
2019-05-25T11:04:58.784Z,6.90
2019-05-25T11:05:58.744Z,7.10
2019-05-25T11:06:58.728Z,6.40
2019-05-25T11:07:58.739Z,6.40
2019-05-25T11:08:58.733Z,6.70
2019-05-25T11:09:58.712Z,6.30
2019-05-25T11:10:58.682Z,6.30
2019-05-25T11:11:58.720Z,5.80
2019-05-25T11:12:58.659Z,5.80
2019-05-25T11:13:58.676Z,5.20
2019-05-25T11:14:58.677Z,5.00
2019-05-25T11:15:58.671Z,4.80
2019-05-25T11:16:58.619Z,4.90
2019-05-25T11:17:58.680Z,5.40
2019-05-25T11:18:58.589Z,5.40
2019-05-25T11:19:58.585Z,5.70
2019-05-25T11:20:58.589Z,5.50
2019-05-25T11:21:58.578Z,5.50
2019-05-25T11:22:58.547Z,5.10
2019-05-25T11:23:58.544Z,5.20
2019-05-25T11:24:58.524Z,5.10
2019-05-25T11:25:58.523Z,5.20
2019-05-25T11:26:59.727Z,5.20
2019-05-25T11:27:58.532Z,5.60
2019-05-25T11:28:58.523Z,5.70
2019-05-25T11:30:08.496Z,5.50
2019-05-25T11:30:58.471Z,5.30
2019-05-25T11:32:03.525Z,5.00
2019-05-25T11:32:59.436Z,6.00
2019-05-25T11:33:58.491Z,5.80
2019-05-25T11:34:58.461Z,5.60
2019-05-25T11:35:58.402Z,6.10
2019-05-25T11:36:58.389Z,6.10
2019-05-25T11:37:58.419Z,6.40
2019-05-25T11:38:58.412Z,5.60
2019-05-25T11:39:58.381Z,5.50
2019-05-25T11:40:58.352Z,5.80
2019-05-25T11:41:58.335Z,5.80
2019-05-25T11:42:58.329Z,5.90
2019-05-25T11:43:58.438Z,5.90
2019-05-25T11:44:58.322Z,5.90
2019-05-25T11:45:58.323Z,5.80
2019-05-25T11:46:58.277Z,5.90
2019-05-25T11:47:58.306Z,6.20
2019-05-25T11:48:58.259Z,6.20
2019-05-25T11:49:58.280Z,5.80
2019-05-25T11:50:58.265Z,5.70
2019-05-25T11:51:58.232Z,5.80
2019-05-25T11:52:58.214Z,5.70
2019-05-25T11:53:58.206Z,5.50
2019-05-25T11:54:58.704Z,5.50
2019-05-25T11:55:58.196Z,5.50
2019-05-25T11:56:58.197Z,5.70
2019-05-25T11:57:58.190Z,6.00
2019-05-25T11:58:58.145Z,5.90
2019-05-25T11:59:58.158Z,6.20
2019-05-25T12:00:58.171Z,5.90
2019-05-25T12:01:58.126Z,6.10
2019-05-25T12:02:58.129Z,5.80
2019-05-25T12:03:58.096Z,5.60
2019-05-25T12:04:58.090Z,4.80
2019-05-25T12:05:58.081Z,4.80
2019-05-25T12:06:58.091Z,5.10
2019-05-25T12:07:58.065Z,5.10
2019-05-25T12:08:58.030Z,4.70
2019-05-25T12:09:58.078Z,4.60
2019-05-25T12:10:58.008Z,4.50
2019-05-25T12:11:58.006Z,4.60
2019-05-25T12:12:57.993Z,4.30
2019-05-25T12:13:58.007Z,4.50
2019-05-25T12:14:57.994Z,4.50
2019-05-25T12:15:57.971Z,4.40
2019-05-25T12:16:57.952Z,4.50
2019-05-25T12:17:57.946Z,4.40
2019-05-25T12:18:57.937Z,4.70
2019-05-25T12:19:57.974Z,4.40
2019-05-25T12:20:57.897Z,4.90
2019-05-25T12:21:57.888Z,5.20
2019-05-25T12:22:57.875Z,5.20
2019-05-25T12:23:57.875Z,5.40
2019-05-25T12:24:57.894Z,5.20
2019-05-25T12:25:57.866Z,5.10
2019-05-25T12:26:57.835Z,5.40
2019-05-25T12:27:57.828Z,5.00
2019-05-25T12:28:57.809Z,5.50
2019-05-25T12:29:57.848Z,5.50
2019-05-25T12:30:57.809Z,5.30
2019-05-25T12:32:04.074Z,5.60
2019-05-25T12:32:58.771Z,5.30
2019-05-25T12:33:57.757Z,5.20
2019-05-25T12:34:57.761Z,5.40
2019-05-25T12:35:57.749Z,5.30
2019-05-25T12:36:57.761Z,5.20
2019-05-25T12:37:57.710Z,5.30
2019-05-25T12:38:57.704Z,5.40
2019-05-25T12:39:57.699Z,5.10
2019-05-25T12:40:57.681Z,5.30
2019-05-25T12:41:57.685Z,5.10
2019-05-25T12:42:57.670Z,5.50
2019-05-25T12:43:57.651Z,5.80
2019-05-25T12:44:57.655Z,4.90
2019-05-25T12:45:57.617Z,5.40
2019-05-25T12:46:57.697Z,5.20
2019-05-25T12:47:57.613Z,5.10
2019-05-25T12:48:57.609Z,5.40
2019-05-25T12:49:57.575Z,5.60
2019-05-25T12:50:57.571Z,5.40
2019-05-25T12:51:57.550Z,5.50
2019-05-25T12:52:57.561Z,5.70
2019-05-25T12:53:57.550Z,5.00
2019-05-25T12:54:57.581Z,5.20
2019-05-25T12:55:57.510Z,5.10
2019-05-25T12:56:57.503Z,5.00
2019-05-25T12:57:57.496Z,5.50
2019-05-25T12:58:57.501Z,5.50
2019-05-25T13:00:12.230Z,4.90
2019-05-25T13:00:57.480Z,5.50
2019-05-25T13:01:57.441Z,5.30